Time;durP1;ratioP1;P1;durP2;ratioP2;P2;SDS_P1;SDS_P2;PMS_P1;PMS_P2;Temp;Humidity;BMP_temperature;BMP_pressure;BME280_temperature;BME280_humidity;BME280_pressure;Samples;Min_cycle;Max_cycle;Signal;HPM_P1;HPM_P2
2022/11/26 00:02:09;;;;;;;14.35;10.10;;;22.40;45.90;;;;;;7707807;22;83756;-57
2022/11/26 00:05:09;;;;;;;17.08;9.52;;;22.40;45.90;;;;;;7709517;22;83423;-75
2022/11/26 00:08:10;;;;;;;18.08;10.60;;;22.40;45.90;;;;;;7711562;22;81940;-73
2022/11/26 00:11:10;;;;;;;15.05;9.93;;;22.40;46.00;;;;;;7709969;22;83285;-75
2022/11/26 00:14:11;;;;;;;17.17;10.50;;;22.40;46.00;;;;;;7712580;22;83465;-75
2022/11/26 00:17:14;;;;;;;16.70;11.23;;;22.40;46.10;;;;;;7712197;22;84132;-75
2022/11/26 00:20:15;;;;;;;16.95;10.68;;;22.40;46.10;;;;;;7712655;22;83238;-74
2022/11/26 00:23:15;;;;;;;17.45;10.85;;;22.40;46.20;;;;;;7681531;22;84161;-71
2022/11/26 00:26:16;;;;;;;16.63;9.85;;;22.40;46.10;;;;;;7709867;22;88532;-62
2022/11/26 00:29:16;;;;;;;18.08;11.25;;;22.30;46.10;;;;;;7689111;22;84793;-72
2022/11/26 00:32:17;;;;;;;15.73;10.65;;;22.30;46.20;;;;;;7686194;22;83053;-76
2022/11/26 00:35:17;;;;;;;16.88;10.40;;;22.30;46.20;;;;;;7711335;22;83891;-77
2022/11/26 00:38:18;;;;;;;15.50;10.45;;;22.30;46.20;;;;;;7708777;22;83039;-75
2022/11/26 00:41:18;;;;;;;15.60;9.90;;;22.30;46.30;;;;;;7711476;22;83003;-75
2022/11/26 00:44:19;;;;;;;18.15;10.63;;;22.30;46.30;;;;;;7660668;22;85734;-74
2022/11/26 00:47:19;;;;;;;19.00;10.15;;;22.30;46.40;;;;;;7712087;22;84128;-75
2022/11/26 00:50:20;;;;;;;14.88;10.52;;;22.30;46.30;;;;;;7709791;22;83169;-73
2022/11/26 00:53:20;;;;;;;17.33;10.43;;;22.40;46.40;;;;;;7712389;22;83173;-74
2022/11/26 00:56:21;;;;;;;17.05;9.85;;;22.30;46.30;;;;;;7658908;22;85004;-70
2022/11/26 00:59:21;;;;;;;17.13;10.30;;;22.30;46.40;;;;;;7718164;22;83459;-70
2022/11/26 01:02:22;;;;;;;16.08;10.18;;;22.30;46.50;;;;;;7660747;22;83483;-58
2022/11/26 01:05:22;;;;;;;14.65;9.73;;;22.30;46.50;;;;;;7713406;22;83070;-59
2022/11/26 01:08:23;;;;;;;17.23;10.73;;;22.30;46.40;;;;;;7715867;22;83462;-57
2022/11/26 01:11:23;;;;;;;15.68;9.98;;;22.30;46.40;;;;;;7711642;22;84984;-57
2022/11/26 01:14:24;;;;;;;15.32;10.18;;;22.30;46.50;;;;;;7712119;22;83088;-57
2022/11/26 01:17:24;;;;;;;15.35;9.73;;;22.30;46.40;;;;;;7712639;22;82801;-59
2022/11/26 01:20:25;;;;;;;17.13;10.52;;;22.30;46.30;;;;;;7718372;22;83693;-59
2022/11/26 01:23:25;;;;;;;16.30;9.80;;;22.30;46.30;;;;;;7714154;22;84195;-59
2022/11/26 01:26:26;;;;;;;24.75;9.65;;;22.30;46.30;;;;;;7715527;22;81947;-58
2022/11/26 01:29:27;;;;;;;16.63;9.52;;;22.30;46.40;;;;;;7717298;22;80374;-57
2022/11/26 01:32:27;;;;;;;15.07;9.73;;;22.30;46.40;;;;;;7718168;22;80192;-58
2022/11/26 01:35:28;;;;;;;15.43;9.38;;;22.30;46.50;;;;;;7688474;22;82418;-59
2022/11/26 01:38:28;;;;;;;17.10;10.75;;;22.30;46.60;;;;;;7716019;22;81210;-58
2022/11/26 01:41:29;;;;;;;16.85;10.23;;;22.30;46.50;;;;;;7711170;22;83181;-58
2022/11/26 01:44:29;;;;;;;18.55;10.27;;;22.20;46.30;;;;;;7713095;22;83791;-57
2022/11/26 01:47:30;;;;;;;15.48;9.80;;;22.30;46.40;;;;;;7713139;22;82982;-58
2022/11/26 01:50:30;;;;;;;12.85;8.55;;;22.30;46.70;;;;;;7716337;22;83418;-56
2022/11/26 01:53:30;;;;;;;13.15;8.55;;;22.30;46.50;;;;;;7716557;22;79928;-58
2022/11/26 01:56:31;;;;;;;15.68;9.10;;;22.30;46.30;;;;;;7715001;22;81123;-57
2022/11/26 01:59:31;;;;;;;15.95;8.90;;;22.30;46.50;;;;;;7710463;22;80569;-57
2022/11/26 02:02:32;;;;;;;13.65;8.75;;;22.30;46.60;;;;;;7713799;22;80820;-56
2022/11/26 02:05:32;;;;;;;11.95;8.05;;;22.30;46.70;;;;;;7713090;22;81564;-58
2022/11/26 02:08:33;;;;;;;13.63;7.95;;;22.30;46.70;;;;;;7713493;22;81070;-56
2022/11/26 02:11:33;;;;;;;15.73;8.02;;;22.30;46.70;;;;;;7713597;22;82240;-57
2022/11/26 02:14:34;;;;;;;12.27;8.02;;;22.30;46.80;;;;;;7715275;22;81067;-57
2022/11/26 02:17:35;;;;;;;13.63;8.52;;;22.30;46.70;;;;;;7716113;22;81721;-57
2022/11/26 02:20:35;;;;;;;11.95;7.55;;;22.30;46.70;;;;;;7716520;22;80314;-56
2022/11/26 02:23:36;;;;;;;12.40;7.75;;;22.30;46.80;;;;;;7717939;22;80759;-59
2022/11/26 02:26:36;;;;;;;11.15;6.90;;;22.30;46.70;;;;;;7715237;22;80376;-59
2022/11/26 02:29:38;;;;;;;11.48;7.05;;;22.30;46.80;;;;;;7712989;22;80513;-57
2022/11/26 02:32:38;;;;;;;11.57;7.40;;;22.30;46.80;;;;;;7712631;22;81087;-59
2022/11/26 02:35:38;;;;;;;12.10;7.53;;;22.30;46.90;;;;;;7717176;22;80180;-59
2022/11/26 02:38:39;;;;;;;11.55;7.05;;;22.30;46.90;;;;;;7716124;22;80940;-59
2022/11/26 02:41:39;;;;;;;10.73;6.53;;;22.20;46.90;;;;;;7715233;22;80409;-59
2022/11/26 02:44:40;;;;;;;12.20;7.57;;;22.20;47.00;;;;;;7716544;22;81680;-57
2022/11/26 02:47:40;;;;;;;11.50;6.90;;;22.30;46.90;;;;;;7716808;22;82125;-57
2022/11/26 02:50:41;;;;;;;10.07;6.40;;;22.30;46.80;;;;;;7715693;22;80233;-65
2022/11/26 02:53:41;;;;;;;11.70;6.80;;;22.30;46.80;;;;;;7717150;22;80587;-65
2022/11/26 02:56:42;;;;;;;11.25;7.13;;;22.30;47.00;;;;;;7714658;22;80290;-65
2022/11/26 02:59:42;;;;;;;10.50;6.93;;;22.20;46.80;;;;;;7718043;22;80495;-62
2022/11/26 03:02:43;;;;;;;10.88;7.22;;;22.30;46.80;;;;;;7717518;22;80226;-63
2022/11/26 03:05:43;;;;;;;11.05;7.03;;;22.20;46.60;;;;;;7713276;22;80394;-63
2022/11/26 03:08:44;;;;;;;12.27;7.30;;;22.30;46.70;;;;;;7713917;22;81994;-64
2022/11/26 03:11:44;;;;;;;9.55;6.07;;;22.20;46.70;;;;;;7718170;22;80919;-75
2022/11/26 03:14:45;;;;;;;11.80;7.03;;;22.20;46.50;;;;;;7712863;22;80668;-75
2022/11/26 03:17:45;;;;;;;11.02;7.43;;;22.20;46.60;;;;;;7715812;22;81541;-75
2022/11/26 03:20:46;;;;;;;10.07;6.53;;;22.20;46.40;;;;;;7714908;22;81727;-75
2022/11/26 03:23:46;;;;;;;11.82;7.20;;;22.30;46.40;;;;;;7716092;22;80388;-74
2022/11/26 03:26:47;;;;;;;10.90;6.55;;;22.30;46.40;;;;;;7717079;22;80609;-73
2022/11/26 03:29:47;;;;;;;11.75;7.03;;;22.30;46.30;;;;;;7713857;22;81385;-57
2022/11/26 03:32:48;;;;;;;11.18;7.07;;;22.20;46.30;;;;;;7716756;22;80647;-58
2022/11/26 03:35:48;;;;;;;11.02;6.60;;;22.30;46.20;;;;;;7716669;22;80379;-57
2022/11/26 03:38:49;;;;;;;8.70;6.22;;;22.20;46.20;;;;;;7714094;22;80587;-57
2022/11/26 03:41:49;;;;;;;10.15;6.47;;;22.20;46.10;;;;;;7715110;22;80610;-58
2022/11/26 03:44:50;;;;;;;9.48;6.25;;;22.30;46.20;;;;;;7717657;22;80414;-58
2022/11/26 03:47:50;;;;;;;11.20;7.30;;;22.20;46.20;;;;;;7715020;22;80931;-58
2022/11/26 03:50:51;;;;;;;11.98;7.32;;;22.30;46.30;;;;;;7717677;22;80809;-58
2022/11/26 03:53:51;;;;;;;11.48;7.25;;;22.20;46.40;;;;;;7716247;22;80420;-58
2022/11/26 03:56:52;;;;;;;13.27;7.22;;;22.30;46.50;;;;;;7715939;22;80796;-58
2022/11/26 03:59:52;;;;;;;12.77;8.10;;;22.20;46.50;;;;;;7715007;22;80512;-58
2022/11/26 04:02:53;;;;;;;11.48;7.10;;;22.20;46.50;;;;;;7714419;22;81727;-58
2022/11/26 04:05:53;;;;;;;11.60;7.43;;;22.20;46.50;;;;;;7714799;22;80629;-58
2022/11/26 04:08:54;;;;;;;14.73;7.72;;;22.20;46.60;;;;;;7716956;22;80536;-59
2022/11/26 04:11:54;;;;;;;12.35;8.07;;;22.20;46.80;;;;;;7687356;22;82188;-59
2022/11/26 04:14:55;;;;;;;11.13;6.80;;;22.30;47.10;;;;;;7716603;22;80318;-59
2022/11/26 04:17:55;;;;;;;14.20;9.25;;;22.30;47.30;;;;;;7718448;22;80802;-57
2022/11/26 04:20:55;;;;;;;14.27;8.88;;;22.30;46.60;;;;;;7711172;22;80452;-58
2022/11/26 04:23:56;;;;;;;15.40;9.27;;;22.30;46.10;;;;;;7717074;22;80701;-58
2022/11/26 04:26:56;;;;;;;14.57;9.38;;;22.30;45.80;;;;;;7714205;22;80560;-54
2022/11/26 04:29:57;;;;;;;15.90;9.50;;;22.40;45.50;;;;;;7717336;22;81390;-56
2022/11/26 04:32:57;;;;;;;18.63;9.85;;;22.40;45.50;;;;;;7716879;22;80394;-58
2022/11/26 04:35:58;;;;;;;15.18;9.02;;;22.50;45.50;;;;;;7717575;22;81421;-57
2022/11/26 04:38:58;;;;;;;13.48;8.85;;;22.50;45.50;;;;;;7716490;22;80873;-57
2022/11/26 04:41:59;;;;;;;16.60;9.23;;;22.50;45.70;;;;;;7713800;22;81081;-55
2022/11/26 04:44:59;;;;;;;13.73;8.57;;;22.60;45.70;;;;;;7713678;22;80572;-54
2022/11/26 04:48:00;;;;;;;14.77;9.35;;;22.60;45.40;;;;;;7711770;22;80344;-57
2022/11/26 04:51:00;;;;;;;15.73;8.57;;;22.60;45.30;;;;;;7716197;22;81291;-54
2022/11/26 04:54:01;;;;;;;12.60;7.80;;;22.70;45.30;;;;;;7718682;22;80546;-56
2022/11/26 04:57:01;;;;;;;12.63;7.78;;;22.70;45.60;;;;;;7715217;22;80409;-58
2022/11/26 05:00:02;;;;;;;12.00;7.45;;;22.70;45.50;;;;;;7690358;22;80336;-63
2022/11/26 05:03:02;;;;;;;11.02;6.85;;;22.80;45.50;;;;;;7712701;22;80453;-63
2022/11/26 05:06:03;;;;;;;12.13;7.25;;;22.80;45.80;;;;;;7719396;22;80284;-65
2022/11/26 05:09:03;;;;;;;11.25;7.00;;;22.80;46.10;;;;;;7717462;22;80310;-65
2022/11/26 05:12:04;;;;;;;12.95;6.88;;;22.80;46.00;;;;;;7715184;22;81347;-64
2022/11/26 05:15:04;;;;;;;7.43;5.82;;;22.80;46.30;;;;;;7715436;22;80319;-64
2022/11/26 05:18:05;;;;;;;11.82;6.90;;;22.90;46.40;;;;;;7716536;22;80710;-71
2022/11/26 05:21:05;;;;;;;9.27;5.60;;;22.90;46.50;;;;;;7717070;22;80891;-74
2022/11/26 05:24:06;;;;;;;9.52;5.80;;;22.90;46.60;;;;;;7718273;22;80219;-74
2022/11/26 05:27:06;;;;;;;7.95;5.60;;;22.90;46.60;;;;;;7717897;22;80405;-73
2022/11/26 05:30:07;;;;;;;10.90;6.22;;;22.90;46.60;;;;;;7715570;22;80721;-74
2022/11/26 05:33:07;;;;;;;7.55;5.18;;;23.00;46.70;;;;;;7717478;22;81188;-76
2022/11/26 05:36:08;;;;;;;8.20;5.45;;;22.90;46.90;;;;;;7715939;22;81030;-61
2022/11/26 05:39:08;;;;;;;7.95;4.85;;;23.00;47.10;;;;;;7715746;22;80594;-64
2022/11/26 05:42:09;;;;;;;9.80;5.22;;;22.90;47.10;;;;;;7708096;22;81611;-64
2022/11/26 05:45:09;;;;;;;10.25;5.72;;;23.00;47.10;;;;;;7714335;22;81731;-64
2022/11/26 05:48:09;;;;;;;9.68;5.60;;;23.00;46.80;;;;;;7711886;22;80490;-66
2022/11/26 05:51:10;;;;;;;9.75;5.65;;;23.00;46.50;;;;;;7714291;22;81848;-66
2022/11/26 05:54:10;;;;;;;9.27;5.68;;;23.00;46.20;;;;;;7716325;22;80778;-60
2022/11/26 05:57:11;;;;;;;12.68;5.60;;;23.00;46.60;;;;;;7718403;22;82093;-58
2022/11/26 06:00:11;;;;;;;10.70;6.18;;;23.00;46.80;;;;;;7709065;22;80775;-57
2022/11/26 06:03:12;;;;;;;10.32;6.07;;;23.00;46.80;;;;;;7710508;22;80993;-57
2022/11/26 06:06:13;;;;;;;9.25;5.60;;;23.00;46.90;;;;;;7715055;22;80604;-55
2022/11/26 06:09:13;;;;;;;19.20;7.38;;;23.00;46.60;;;;;;7702664;22;80212;-57
2022/11/26 06:12:14;;;;;;;12.90;7.65;;;23.00;46.20;;;;;;7694699;22;81133;-57
2022/11/26 06:15:14;;;;;;;14.88;8.18;;;23.00;45.90;;;;;;7707419;22;80725;-56
2022/11/26 06:18:15;;;;;;;23.20;8.93;;;22.90;46.10;;;;;;7700138;22;80980;-60
2022/11/26 06:21:15;;;;;;;13.55;7.93;;;22.90;46.60;;;;;;7708640;22;81101;-57
2022/11/26 06:24:16;;;;;;;11.57;7.65;;;22.90;47.00;;;;;;7689629;22;87403;-57
2022/11/26 06:27:16;;;;;;;12.57;8.18;;;23.00;47.40;;;;;;7673672;22;80141;-56
2022/11/26 06:30:17;;;;;;;14.93;8.38;;;23.00;47.50;;;;;;7671022;22;80569;-57
2022/11/26 06:33:17;;;;;;;16.02;8.55;;;22.90;47.30;;;;;;7676286;22;80915;-57
2022/11/26 06:36:18;;;;;;;14.88;8.00;;;22.90;47.90;;;;;;7676184;22;81669;-55
2022/11/26 06:39:18;;;;;;;16.63;8.77;;;22.90;48.60;;;;;;7672785;22;80764;-57
2022/11/26 06:42:19;;;;;;;13.32;6.60;;;22.80;47.70;;;;;;7670871;22;80514;-58
2022/11/26 06:45:19;;;;;;;10.35;5.85;;;22.70;49.30;;;;;;7677876;22;81299;-58
2022/11/26 06:48:19;;;;;;;8.32;5.90;;;22.60;50.30;;;;;;7673968;22;80284;-59
2022/11/26 06:51:20;;;;;;;10.38;5.63;;;22.60;51.30;;;;;;7675585;22;80840;-59
2022/11/26 06:54:21;;;;;;;9.73;5.38;;;22.50;51.60;;;;;;7670028;22;80720;-57
2022/11/26 06:57:21;;;;;;;6.78;4.75;;;22.50;52.20;;;;;;7671880;22;81470;-58
2022/11/26 07:00:22;;;;;;;8.85;5.25;;;22.50;52.40;;;;;;7668525;22;81035;-55
2022/11/26 07:03:22;;;;;;;8.70;4.68;;;22.50;52.90;;;;;;7641896;22;82791;-57
2022/11/26 07:06:23;;;;;;;6.10;3.88;;;22.60;52.80;;;;;;7666788;22;80812;-58
2022/11/26 07:09:23;;;;;;;6.88;4.07;;;22.60;53.10;;;;;;7667579;22;81078;-73
2022/11/26 07:12:24;;;;;;;7.05;4.00;;;22.60;53.40;;;;;;7645252;22;80861;-70
2022/11/26 07:15:24;;;;;;;6.43;4.15;;;22.60;53.60;;;;;;7632632;22;80666;-70
2022/11/26 07:18:25;;;;;;;7.18;4.38;;;22.70;53.90;;;;;;7632511;22;81052;-72
2022/11/26 07:21:25;;;;;;;6.45;3.83;;;22.70;54.20;;;;;;7635231;22;81395;-74
2022/11/26 07:24:26;;;;;;;24.63;4.57;;;22.80;54.30;;;;;;7633414;22;81124;-75
2022/11/26 07:27:26;;;;;;;26.05;4.55;;;22.80;54.20;;;;;;7635448;22;80208;-69
2022/11/26 07:30:27;;;;;;;6.57;4.22;;;22.80;54.40;;;;;;7634350;22;81663;-69
2022/11/26 07:33:27;;;;;;;6.10;3.85;;;22.80;54.00;;;;;;7605132;22;84060;-68
2022/11/26 07:36:28;;;;;;;5.18;3.63;;;22.90;54.40;;;;;;7641042;22;80918;-71
2022/11/26 07:39:28;;;;;;;6.53;4.18;;;22.80;54.30;;;;;;7633081;22;81300;-68
2022/11/26 07:42:29;;;;;;;5.32;3.53;;;22.80;54.50;;;;;;7634322;22;81898;-67
2022/11/26 07:45:30;;;;;;;6.63;3.42;;;22.70;54.00;;;;;;7627679;22;80237;-55
2022/11/26 07:48:30;;;;;;;5.05;3.05;;;22.60;54.80;;;;;;7618244;22;81222;-57
2022/11/26 07:51:31;;;;;;;7.13;3.50;;;22.60;55.40;;;;;;7617788;22;81143;-59
2022/11/26 07:54:31;;;;;;;9.18;3.70;;;22.60;55.80;;;;;;7622273;22;80885;-57
2022/11/26 07:57:32;;;;;;;6.88;3.67;;;22.60;55.90;;;;;;7625346;22;81704;-58
2022/11/26 08:00:32;;;;;;;5.72;3.15;;;22.60;56.10;;;;;;7621934;22;80822;-58
2022/11/26 08:03:32;;;;;;;5.60;2.85;;;22.60;56.40;;;;;;7630164;22;80579;-60
2022/11/26 08:06:33;;;;;;;3.35;2.50;;;22.50;56.80;;;;;;7633294;22;80770;-57
2022/11/26 08:09:34;;;;;;;5.57;2.80;;;22.40;56.90;;;;;;7633094;22;80301;-59
2022/11/26 08:12:34;;;;;;;9.80;2.65;;;22.40;57.10;;;;;;7631895;22;80745;-59
2022/11/26 08:15:36;;;;;;;19.45;2.15;;;22.40;57.30;;;;;;7639338;22;80846;-55
2022/11/26 08:18:36;;;;;;;3.83;3.13;;;22.40;57.20;;;;;;7636378;22;82205;-57
2022/11/26 08:21:38;;;;;;;5.32;2.83;;;22.40;56.70;;;;;;7639270;22;80426;-59
2022/11/26 08:24:38;;;;;;;3.70;2.55;;;22.30;56.80;;;;;;7633108;22;80541;-58
2022/11/26 08:27:39;;;;;;;3.78;2.67;;;22.30;56.50;;;;;;7637989;22;81116;-57
2022/11/26 08:30:39;;;;;;;4.10;2.47;;;22.20;56.50;;;;;;7635798;22;81091;-56
2022/11/26 08:33:40;;;;;;;4.63;2.83;;;22.20;56.30;;;;;;7636575;22;81234;-57
2022/11/26 08:36:40;;;;;;;5.25;3.22;;;22.20;56.10;;;;;;7638036;22;80108;-57
2022/11/26 08:39:41;;;;;;;4.45;2.97;;;22.20;56.10;;;;;;7638657;22;80928;-58
2022/11/26 08:42:41;;;;;;;3.83;2.83;;;22.20;56.00;;;;;;7639868;22;80925;-57
2022/11/26 08:45:42;;;;;;;6.60;3.03;;;22.20;55.80;;;;;;7639173;22;81486;-58
2022/11/26 08:48:44;;;;;;;4.05;2.67;;;22.20;55.40;;;;;;7640374;22;81440;-57
2022/11/26 08:51:44;;;;;;;5.53;2.97;;;22.20;55.30;;;;;;7630766;22;81262;-58
2022/11/26 08:54:45;;;;;;;3.10;2.80;;;22.20;55.20;;;;;;7632943;22;81333;-59
2022/11/26 08:57:45;;;;;;;7.68;3.03;;;22.20;54.90;;;;;;7636584;22;80617;-58
2022/11/26 09:00:46;;;;;;;4.53;3.38;;;22.20;54.80;;;;;;7630740;22;81488;-55
2022/11/26 09:03:46;;;;;;;6.15;3.33;;;22.20;54.70;;;;;;7639144;22;80723;-58
2022/11/26 09:06:47;;;;;;;4.85;3.17;;;22.20;54.10;;;;;;7638351;22;81568;-59
2022/11/26 09:09:47;;;;;;;5.85;3.88;;;22.10;54.10;;;;;;7637562;22;79993;-58
2022/11/26 09:12:48;;;;;;;5.43;3.50;;;22.10;53.80;;;;;;7636212;22;80574;-57
2022/11/26 09:15:48;;;;;;;7.45;4.20;;;22.10;53.70;;;;;;7634271;22;81208;-58
2022/11/26 09:18:48;;;;;;;4.70;3.15;;;22.10;53.40;;;;;;7637104;22;80027;-65
2022/11/26 09:21:49;;;;;;;4.43;3.20;;;22.10;53.20;;;;;;7641765;22;81075;-63
2022/11/26 09:24:50;;;;;;;7.43;4.22;;;22.10;53.10;;;;;;7641190;22;80285;-65
2022/11/26 09:27:50;;;;;;;5.05;3.80;;;22.10;52.80;;;;;;7637705;22;80543;-67
2022/11/26 09:30:51;;;;;;;5.03;3.75;;;22.10;52.40;;;;;;7640107;22;81489;-66
2022/11/26 09:33:51;;;;;;;5.85;3.95;;;22.10;52.10;;;;;;7641109;22;81090;-65
2022/11/26 09:36:52;;;;;;;5.07;3.75;;;22.10;52.00;;;;;;7640789;22;80402;-64
2022/11/26 09:39:52;;;;;;;5.18;3.70;;;22.10;51.70;;;;;;7641914;22;81284;-66
2022/11/26 09:42:52;;;;;;;6.43;4.03;;;22.10;51.10;;;;;;7644033;22;80316;-65
2022/11/26 09:45:54;;;;;;;6.13;3.92;;;22.10;51.10;;;;;;7641034;22;81164;-66
2022/11/26 09:48:55;;;;;;;8.23;4.00;;;22.10;50.90;;;;;;7641115;22;80568;-66
2022/11/26 09:51:55;;;;;;;5.72;4.20;;;22.10;50.80;;;;;;7637376;22;80725;-65
2022/11/26 09:54:56;;;;;;;6.45;4.45;;;22.10;50.70;;;;;;7640581;22;80381;-63
2022/11/26 09:57:56;;;;;;;6.38;4.40;;;22.00;50.60;;;;;;7641577;22;80975;-63
2022/11/26 10:00:57;;;;;;;8.32;4.88;;;22.00;50.60;;;;;;7636644;22;80483;-63
2022/11/26 10:03:57;;;;;;;7.90;4.97;;;22.10;50.50;;;;;;7641009;22;81525;-69
2022/11/26 10:06:58;;;;;;;6.88;4.43;;;22.20;49.90;;;;;;7639857;22;80432;-63
2022/11/26 10:09:58;;;;;;;7.18;4.88;;;22.20;49.70;;;;;;7639825;22;80175;-65
2022/11/26 10:12:59;;;;;;;16.58;4.63;;;22.30;49.60;;;;;;7640433;22;80717;-65
2022/11/26 10:15:59;;;;;;;11.27;5.10;;;22.30;49.50;;;;;;7641691;22;80435;-62
2022/11/26 10:19:00;;;;;;;11.45;5.07;;;22.40;49.00;;;;;;7634696;22;81374;-67
2022/11/26 10:22:00;;;;;;;9.23;4.47;;;22.40;49.00;;;;;;7624064;22;81849;-60
2022/11/26 10:25:01;;;;;;;9.30;5.18;;;22.40;48.60;;;;;;7637396;22;82056;-67
2022/11/26 10:28:01;;;;;;;7.10;4.90;;;22.50;48.50;;;;;;7637617;22;81264;-64
2022/11/26 10:31:02;;;;;;;7.70;5.07;;;22.50;48.40;;;;;;7640851;22;80564;-53
2022/11/26 10:34:02;;;;;;;12.88;4.68;;;22.50;48.70;;;;;;7629592;22;80598;-53
2022/11/26 10:37:03;;;;;;;8.60;4.63;;;22.60;48.70;;;;;;7632409;22;81460;-59
2022/11/26 10:40:04;;;;;;;6.35;4.68;;;22.60;48.60;;;;;;7616845;22;81713;-59
2022/11/26 10:43:04;;;;;;;7.68;5.10;;;22.60;48.70;;;;;;7628316;22;80162;-60
2022/11/26 10:46:05;;;;;;;8.63;5.70;;;22.70;48.70;;;;;;7632309;22;80638;-58
2022/11/26 10:49:05;;;;;;;5.85;4.82;;;22.70;48.60;;;;;;7629754;22;81725;-58
2022/11/26 10:52:05;;;;;;;6.82;5.15;;;22.70;48.70;;;;;;7639836;22;80508;-59
2022/11/26 10:55:06;;;;;;;8.38;5.22;;;22.70;48.50;;;;;;7642638;22;80643;-57
2022/11/26 10:58:07;;;;;;;8.38;4.80;;;22.60;48.30;;;;;;7634811;22;81310;-59
2022/11/26 11:01:07;;;;;;;7.93;5.38;;;22.60;48.60;;;;;;7632341;22;80774;-58
2022/11/26 11:04:08;;;;;;;9.38;5.25;;;22.60;48.60;;;;;;7638151;22;82421;-57
2022/11/26 11:07:08;;;;;;;9.60;5.57;;;22.60;48.60;;;;;;7638803;22;80521;-70
2022/11/26 11:10:08;;;;;;;7.20;5.00;;;22.60;48.80;;;;;;7640511;22;80135;-69
2022/11/26 11:13:10;;;;;;;7.05;4.97;;;22.60;48.70;;;;;;7639131;22;81529;-64
2022/11/26 11:16:11;;;;;;;11.90;5.47;;;22.60;48.90;;;;;;7637508;22;80720;-63
2022/11/26 11:19:14;;;;;;;8.07;5.03;;;22.60;49.10;;;;;;7630141;22;81699;-62
2022/11/26 11:22:14;;;;;;;8.90;5.70;;;22.70;49.30;;;;;;7633966;22;80261;-67
2022/11/26 11:25:15;;;;;;;10.90;4.90;;;22.70;49.30;;;;;;7629419;22;80518;-66
2022/11/26 11:28:15;;;;;;;11.98;5.10;;;22.70;50.30;;;;;;7634885;22;80493;-65
2022/11/26 11:31:16;;;;;;;10.40;5.70;;;22.70;49.60;;;;;;7639405;22;80655;-68
2022/11/26 11:34:16;;;;;;;29.02;14.65;;;22.70;49.60;;;;;;7643288;22;81392;-62
2022/11/26 11:37:17;;;;;;;150.95;70.38;;;22.70;49.90;;;;;;7633425;22;83490;-67
2022/11/26 11:40:24;;;;;;;118.97;59.90;;;22.70;51.30;;;;;;7635388;22;83943;-66
2022/11/26 11:43:25;;;;;;;113.72;60.35;;;22.70;51.70;;;;;;7630112;22;83323;-60
2022/11/26 11:46:26;;;;;;;90.03;46.22;;;22.80;51.80;;;;;;7638078;22;84913;-59
2022/11/26 11:49:26;;;;;;;86.50;45.50;;;22.70;51.10;;;;;;7638888;22;83092;-59
2022/11/26 11:52:27;;;;;;;83.85;41.65;;;22.70;51.40;;;;;;7637556;22;83056;-58
2022/11/26 11:55:27;;;;;;;75.25;38.60;;;22.70;52.30;;;;;;7632895;22;83456;-57
2022/11/26 11:58:28;;;;;;;72.70;36.10;;;22.80;52.10;;;;;;7638558;22;83087;-54
2022/11/26 12:01:28;;;;;;;63.83;33.65;;;22.80;53.30;;;;;;7634629;22;83392;-56
2022/11/26 12:04:29;;;;;;;55.13;29.05;;;22.80;52.90;;;;;;7637797;22;82768;-56
2022/11/26 12:07:29;;;;;;;45.08;24.58;;;22.80;52.00;;;;;;7636162;22;84703;-57
2022/11/26 12:10:29;;;;;;;45.63;24.08;;;22.80;51.20;;;;;;7636148;22;82973;-58
2022/11/26 12:13:30;;;;;;;36.45;20.98;;;22.80;50.70;;;;;;7637693;22;83774;-58
2022/11/26 12:16:30;;;;;;;34.10;19.02;;;22.80;50.00;;;;;;7597403;22;83112;-57
2022/11/26 12:19:31;;;;;;;28.60;16.45;;;22.70;49.70;;;;;;7638145;22;83819;-58
2022/11/26 12:22:31;;;;;;;19.35;12.35;;;22.60;49.50;;;;;;7637239;22;83351;-59
2022/11/26 12:25:32;;;;;;;21.70;12.68;;;22.60;49.50;;;;;;7635093;22;84388;-60
2022/11/26 12:28:32;;;;;;;20.50;11.50;;;22.60;49.60;;;;;;7629942;22;83026;-58
2022/11/26 12:31:33;;;;;;;18.77;10.48;;;22.60;49.70;;;;;;7634766;22;83395;-58
2022/11/26 12:34:34;;;;;;;16.95;9.55;;;22.60;49.60;;;;;;7634944;22;83673;-58
2022/11/26 12:37:34;;;;;;;16.73;8.60;;;22.60;49.80;;;;;;7639197;22;83228;-55
2022/11/26 12:40:34;;;;;;;14.15;7.85;;;22.60;49.80;;;;;;7640221;22;80378;-59
2022/11/26 12:43:35;;;;;;;14.27;8.25;;;22.60;49.80;;;;;;7638304;22;82105;-52
2022/11/26 12:46:35;;;;;;;13.60;7.50;;;22.60;50.00;;;;;;7640492;22;81832;-60
2022/11/26 12:49:36;;;;;;;12.85;7.57;;;22.60;49.90;;;;;;7641887;22;81138;-58
2022/11/26 12:52:36;;;;;;;10.65;6.90;;;22.60;49.70;;;;;;7639813;22;81169;-59
2022/11/26 12:55:37;;;;;;;14.05;7.07;;;22.50;49.80;;;;;;7643250;22;81663;-60
2022/11/26 12:58:37;;;;;;;13.95;6.82;;;22.50;49.80;;;;;;7643841;22;80700;-71
2022/11/26 13:01:38;;;;;;;10.27;6.78;;;22.50;49.60;;;;;;7641485;22;81795;-67
2022/11/26 13:04:39;;;;;;;10.00;5.57;;;22.50;49.60;;;;;;7623995;22;80742;-64
2022/11/26 13:07:39;;;;;;;7.03;5.20;;;22.50;49.90;;;;;;7635742;22;80958;-67
2022/11/26 13:10:40;;;;;;;7.88;4.82;;;22.50;49.90;;;;;;7610992;22;81669;-66
2022/11/26 13:13:40;;;;;;;7.50;5.10;;;22.50;49.90;;;;;;7641718;22;80602;-65
2022/11/26 13:16:41;;;;;;;6.10;4.40;;;22.50;49.80;;;;;;7633404;22;80258;-51
2022/11/26 13:19:42;;;;;;;7.55;5.05;;;22.50;49.90;;;;;;7629958;22;81602;-60
2022/11/26 13:22:43;;;;;;;9.20;5.05;;;22.50;49.90;;;;;;7636459;22;80959;-57
2022/11/26 13:25:43;;;;;;;7.00;4.90;;;22.50;50.10;;;;;;7641384;22;80492;-57
2022/11/26 13:28:45;;;;;;;5.78;3.65;;;22.50;50.10;;;;;;7633632;22;81766;-56
2022/11/26 13:31:45;;;;;;;6.00;3.63;;;22.50;50.30;;;;;;7636380;22;80227;-56
2022/11/26 13:34:46;;;;;;;20.25;4.65;;;22.50;50.20;;;;;;7641036;22;82761;-59
2022/11/26 13:37:46;;;;;;;6.22;4.00;;;22.50;50.30;;;;;;7668958;22;81227;-60
2022/11/26 13:40:47;;;;;;;5.35;3.85;;;22.60;50.50;;;;;;7640660;22;81142;-59
2022/11/26 13:43:48;;;;;;;6.85;3.83;;;22.60;50.60;;;;;;7638104;22;80912;-60
2022/11/26 13:46:49;;;;;;;6.93;4.03;;;22.60;50.30;;;;;;7637127;22;81104;-59
2022/11/26 13:49:49;;;;;;;4.75;3.67;;;22.50;50.50;;;;;;7637696;22;80609;-59
2022/11/26 13:52:50;;;;;;;7.75;4.68;;;22.50;50.50;;;;;;7639518;22;80362;-74
2022/11/26 13:55:50;;;;;;;6.25;4.03;;;22.50;50.40;;;;;;7643153;22;80310;-70
2022/11/26 13:58:51;;;;;;;5.47;3.38;;;22.50;50.40;;;;;;7636391;22;81186;-71
2022/11/26 14:01:51;;;;;;;8.32;3.88;;;22.50;50.50;;;;;;7623372;22;81142;-72
2022/11/26 14:04:52;;;;;;;6.60;3.95;;;22.50;50.40;;;;;;7623547;22;81319;-68
2022/11/26 14:07:52;;;;;;;5.13;3.42;;;22.50;50.20;;;;;;7622570;22;80608;-73
2022/11/26 14:10:53;;;;;;;6.35;3.42;;;22.50;50.20;;;;;;7637264;22;81409;-69
2022/11/26 14:13:53;;;;;;;6.07;3.53;;;22.40;50.20;;;;;;7678263;22;81301;-67
2022/11/26 14:16:54;;;;;;;4.68;3.60;;;22.40;50.20;;;;;;7676442;22;80836;-69
2022/11/26 14:19:57;;;;;;;6.30;3.30;;;22.40;50.30;;;;;;7675828;22;80303;-66
2022/11/26 14:22:57;;;;;;;7.68;3.15;;;22.40;50.20;;;;;;7673503;22;80692;-67
2022/11/26 14:25:58;;;;;;;3.47;2.92;;;22.40;50.10;;;;;;7673287;22;80297;-72
2022/11/26 14:28:58;;;;;;;4.43;3.58;;;22.40;50.30;;;;;;7678142;22;80455;-75
2022/11/26 14:31:59;;;;;;;5.20;3.38;;;22.40;50.40;;;;;;7676267;22;80342;-65
2022/11/26 14:34:59;;;;;;;4.72;3.60;;;22.50;50.60;;;;;;7672870;22;81277;-68
2022/11/26 14:38:00;;;;;;;5.82;3.20;;;22.50;50.50;;;;;;7678526;22;79978;-67
2022/11/26 14:41:00;;;;;;;4.63;3.10;;;22.50;50.40;;;;;;7677718;22;80654;-75
2022/11/26 14:44:01;;;;;;;5.63;3.80;;;22.50;50.50;;;;;;7677849;22;81556;-71
2022/11/26 14:47:01;;;;;;;7.50;4.22;;;22.50;50.70;;;;;;7678982;22;80489;-70
2022/11/26 14:50:02;;;;;;;11.50;3.85;;;22.50;50.70;;;;;;7678756;22;81425;-69
2022/11/26 14:53:02;;;;;;;10.68;3.95;;;22.50;50.80;;;;;;7681987;22;79979;-74
2022/11/26 14:56:03;;;;;;;12.52;4.07;;;22.50;50.90;;;;;;7678868;22;81170;-68
2022/11/26 14:59:03;;;;;;;13.80;4.03;;;22.50;51.10;;;;;;7672420;22;81040;-71
2022/11/26 15:02:04;;;;;;;11.05;4.43;;;22.50;51.30;;;;;;7675717;22;80444;-64
2022/11/26 15:05:04;;;;;;;10.93;4.32;;;22.60;51.30;;;;;;7675495;22;80103;-70
2022/11/26 15:08:05;;;;;;;5.93;3.50;;;22.70;51.20;;;;;;7677928;22;80709;-62
2022/11/26 15:11:05;;;;;;;5.75;4.40;;;22.70;50.90;;;;;;7676792;22;80081;-68
2022/11/26 15:14:06;;;;;;;8.60;3.78;;;22.70;50.30;;;;;;7650299;22;82493;-72
2022/11/26 15:17:06;;;;;;;4.82;3.58;;;22.70;50.00;;;;;;7678873;22;80773;-69
2022/11/26 15:20:07;;;;;;;4.78;3.65;;;22.70;49.90;;;;;;7678493;22;80725;-70
2022/11/26 15:23:10;;;;;;;6.32;4.25;;;22.60;49.80;;;;;;7679428;22;81424;-68
2022/11/26 15:26:11;;;;;;;6.10;4.13;;;22.50;49.70;;;;;;7677510;22;81084;-68
2022/11/26 15:29:11;;;;;;;6.22;4.53;;;22.40;49.70;;;;;;7676204;22;80203;-68
2022/11/26 15:32:12;;;;;;;5.82;4.20;;;22.30;49.70;;;;;;7676920;22;80289;-68